KLAS/LAS METAR and TAF weather

Enter ICAO airport designator
Station Type Date Time Source
KLAS METAR 2022/01/26 07:56 UTC NOAA

KLAS 260756Z 10005KT 10SM CLR 08/M08 A3022 RMK AO2 SLP230 T00781083 401560061 $


Station Type Date Time Source
KLAS Decoded METAR 2022/01/26 07:56 UTC NOAA

MCCARRAN INTERNATIONAL AIRPORT , NV, United States (KLAS) 36-07N 115-16W 636M
Jan 26, 2022 - 02:56 AM EST / 2022.01.26 0756 UTC
Wind: from the E (100 degrees) at 6 MPH (5 KT):0
Visibility: 10 mile(s):0
Sky conditions: clear
Temperature: 46.0 F (7.8 C)
Dew Point: 17.1 F (-8.3 C)
Relative Humidity: 30%
Pressure (altimeter): 30.22 in. Hg (1023 hPa)
ob: KLAS 260756Z 10005KT 10SM CLR 08/M08 A3022 RMK AO2 SLP230 T00781083 401560061
cycle: 8

Station Type Date Time Source
KLAS TAF 2022/01/26 06:40 UTC NOAA

TAF KLAS 260538Z 2606/2712 05010KT P6SM SKC
FM260800 35007KT P6SM SKC
FM261900 04007KT P6SM SKC
FM270300 24006KT P6SM SKC

Example: see airport list